Sign in:
Email
 Password  save:
  
 Company Reports 
 
   
My Recent Searches
  Help
 
   
 
 
Get Institutions for : 
AutoNation Inc (AN)    
$54.99 1.16 (2.15%) as of 4:30 Thu 4/17


Download
     
Institutional Holders
Viewing Quarter :
  
Total Institutions: 251    4
Total shares held : 
75,762,554  
% of shares held : 
52.01%  
Changes In:
New/increased positions vs   
old/decreased positions : 
  15  
Amount of shares held : 
-5,235,968  
% of shares held change : 
  -3.59%  
Quarter Price vs. Current Price:
Last Quarter's Starting Price
$52.37  
Last Quarter's Ending Price : 
$49.69  
Last Quarter's Average Price
$49.50  
Change from last quarter's     
avg. price to the last closing  : 
5.49 (11.09%)  




 
All Securities Held :
Positions
     Shares
% Of
Total Shares
New Positions :
22
 842,543
 1.11%
 
Increased Positions :
107
 6,973,650
 9.2%
 
Unchanged Positions :
34
 3,518,902
 4.64%
 
Decreased Positions :
88
-8,457,042
-11.16%
 
Closed Positions :
26
-4,595,119
-6.07%
 
Guru Positions :
2
15,952,653
 21.06%
 
View holdings for period: 
3-31-2012 View holdings for period: 
6-30-2012 View holdings for period: 
9-30-2012 View holdings for period: 
12-31-2012 View holdings for period: 
3-31-2013 View holdings for period: 
6-30-2013 View holdings for period: 
9-30-2013 View holdings for the current period

  Page 1 of 1  
Free Registration Required For Full Results


            Institution Name
Portfolio
Position
New/Closed
Position

Filing Date

Total Shares

Total Value

Change in Shares

File
   RBS PARTNERS LP -- Notable Guru -- 2 - 2013-12-31 15,765,243 $783,375,000 -3,679,236
   CAPITAL RESEARCH GLOBAL INVESTORS 159 - 2013-12-31 6,794,000 $337,594,000 62,000
   HORIZON KINETICS LLC 6 - 2013-12-31 5,612,562 $278,888,000 -464,821
   VANGUARD GROUP INC 835 - 2013-12-31 4,582,941 $227,727,000 325,640
   SCOPIA MANAGEMENT INC 5 - 2013-12-31 2,624,082 $130,391,000 768,970
   OZ MANAGEMENT LP 34 - 2013-12-31 2,597,473 $129,068,000 -684,478
   STATE STREET CORP 761 - 2013-12-31 2,449,765 $121,732,000 78,158
   BILL & MELINDA GATES FOUNDATION TRUST 16 - 2013-12-31 1,898,716 $94,347,000 0
   Egerton Capital (UK) LLP 23 - 2013-12-31 1,848,967 $91,875,000 1,033,425
   BLACKROCK INSTITUTIONAL TRUST COMPANY 1017 - 2013-12-31 1,495,723 $74,322,000 -1,087
   CITADEL ADVISORS LLC 180 - 2013-12-31 1,385,282 $68,835,000 101,623
   EMINENCE CAPITAL LLC 44 - 2013-12-31 1,326,460 $65,912,000 -62,734
   SIRIOS CAPITAL MANAGEMENT L P 8 - 2013-12-31 1,190,060 $59,134,000 731,150
   WELLS FARGO & CO/MN 668 - 2013-12-31 1,182,144 $58,741,000 346,926
   CLOUGH CAPITAL PARTNERS L P 5 - 2013-12-31 1,155,100 $57,397,000 600
   GAMCO INVESTORS INC ET AL 105 - 2013-12-31 1,101,179 $54,718,000 -19,568
   FMR LLC 1265 - 2013-12-31 1,075,005 $53,418,000 112
   AXIOM INTERNATIONAL INVESTORS LLC /DE 37 - 2013-12-31 864,300 $42,947,000 216,910
   RENAISSANCE TECHNOLOGIES LLC 219 - 2013-12-31 853,700 $42,420,000 -26,000
   BANK OF AMERICA CORP /DE/ 680 - 2013-12-31 811,055 $40,302,000 240,347
   SOUTHPOINT CAPITAL ADVISORS LP 18 - 2013-12-31 760,626 $37,796,000 -589,374
   LOOMIS SAYLES & CO L P 162 - 2013-12-31 743,817 $36,960,000 355,941
   BLACKROCK FUND ADVISORS 1695 - 2013-12-31 646,013 $32,100,000 20,119
   PORTER ORLIN LLC 32 - 2013-12-31 643,000 $31,951,000 113,000
   NEW MOUNTAIN VANTAGE ADVISERS LLC 28 - 2013-12-31 634,431 $31,525,000 429,286
   BANK OF NEW YORK MELLON CORP 1193 - 2013-12-31 613,185 $30,469,000 -17,687
   NORTHERN TRUST CORP 1158 - 2013-12-31 611,508 $30,386,000 -23,824
   APEX CAPITAL MANAGEMENT 43 - 2013-12-31 543,394 $27,001,000 30,589
   EATON VANCE MANAGEMENT 195 - 2013-12-31 529,272 $26,300,000 464,116
   GUGGENHEIM CAPITAL LLC 435 - 2013-12-31 510,501 $25,367,000 73,311
   GOLDMAN SACHS GROUP INC/ 1131 - 2013-12-31 456,045 $22,661,000 -35,958
   GEODE CAPITAL MANAGEMENT LLC 716 - 2013-12-31 453,962 $22,552,000 10,667
   POLAR CAPITAL LLP 67 - 2013-12-31 406,537 $20,201,000 18,590
   INVESCO LTD 1116 - 2013-12-31 405,039 $20,126,000 62,862
   GABELLI FUNDS LLC 283 - 2013-12-31 398,000 $19,777,000 -400
   ZEKE CAPITAL ADVISORS, LLC 1 - 2013-12-31 380,552 $18,910,000 0
   EVERCORE WEALTH MANAGEMENT, LLC 32 - 2013-12-31 376,965 $18,740,000 93,639
   MILLENNIUM MANAGEMENT LLC 409 - 2013-12-31 316,944 $15,749,000 -142,438
   SPEARS ABACUS ADVISORS LLC 24 - 2013-12-31 315,103 $15,657,000 -4,700
   DEUTSCHE BANK AG 1030 - 2013-12-31 309,550 $15,379,000 -117,567
   MORGAN STANLEY 1587 - 2013-12-31 297,534 $14,785,000 197,608
   FIRST TRUST ADVISORS LP 475 - 2013-12-31 281,905 $14,008,000 135,577
   SUVRETTA CAPITAL MANAGEMENT LLC 28 - 2013-12-31 267,100 $13,272,000 0
   BLUE ARROW CAPITAL MANAGEMENT LLC 10 - 2013-12-31 265,000 $13,168,000 0
   MARINER WEALTH ADVISORS, LLC 11 - 2013-12-31 256,549 $12,748,000 0
   IVORY INVESTMENT MANAGEMENT LP 42 *New 2013-12-31 255,795 $12,710,000 255,795
   DIMENSIONAL FUND ADVISORS INC 1981 - 2013-12-31 252,884 $12,566,000 -1,465
   NEW YORK STATE COMMON RETIREMENT FUND 871 - 2013-12-31 220,131 $10,938,000 28,300
   BLACKROCK INVESTMENT MANAGEMENT LLC 934 - 2013-12-31 189,853 $9,434,000 -10,290
   SUSQUEHANNA INTERNATIONAL GROUP, LLP 663 - 2013-12-31 183,367 $9,111,000 170,810
   CALIFORNIA PUBLIC EMPLOYEES RETIREMENT SYSTEM 1039 - 2013-12-31 169,370 $8,589,000 5,978
   Private Capital Management LLC 40 - 2013-12-31 172,738 $8,583,000 -4,564
   ROYAL BANK OF CANADA 996 - 2013-12-31 168,179 $8,357,000 148,192
   SCHWAB CHARLES INVESTMENT MANAGEMENT INC 876 - 2013-12-31 162,487 $8,074,000 7,053
   TIAA CREF INVESTMENT MANAGEMENT LLC 1316 - 2013-12-31 156,957 $7,799,000 -5,594
   BLACKROCK GROUP LTD 941 - 2013-12-31 149,995 $7,454,000 -13,053
   LEGAL & GENERAL GROUP PLC 661 - 2013-12-31 145,624 $7,236,000 -1,463
   MANAGED ACCOUNT ADVISORS LLC 1139 - 2013-12-31 141,028 $7,008,000 4,600
   D E SHAW & CO INC 750 - 2013-12-31 132,690 $6,593,000 103,799
   PARAMETRIC PORTFOLIO ASSOCIATES 932 - 2013-12-31 131,662 $6,542,000 -428
   Claar Advisors LLC 19 - 2013-12-31 126,000 $6,261,000 0
   HANCOCK HOLDING CO 187 *New 2013-12-31 120,272 $5,976,000 120,272
   OLD WEST INVESTMENT MANAGEMENT, LLC 10 - 2013-12-31 118,273 $5,876,000 -12,498
   LEUTHOLD WEEDEN CAPITAL MANAGEMENT LLC 75 *New 2013-12-31 111,943 $5,562,000 111,943
   SHAKER INVESTMENTS LLC/OH 8 *New 2013-12-31 109,225 $5,427,000 109,225
   PRICE T ROWE ASSOCIATES INC /MD/ 1410 - 2013-12-31 104,801 $5,208,000 2,020
   NATIXIS 230 - 2013-12-31 100,000 $4,969,000 0
   J P MORGAN CHASE & CO 1902 - 2013-12-31 98,084 $4,874,000 -207,800
   BLACKROCK INC. 826 - 2013-12-31 96,496 $4,795,000 2,936
   GRANTHAM MAYO VAN OTTERLOO & CO LLC 321 - 2013-12-31 93,658 $4,654,000 6,610
   ALLIANCEBERNSTEIN L.P. 1144 - 2013-12-31 93,235 $4,633,000 -85,796
   CALIFORNIA STATE TEACHERS RETIREMENT SYSTEM 992 - 2013-12-31 92,054 $4,574,000 700
   RHUMBLINE ADVISERS 870 - 2013-12-31 91,332 $4,538,000 -3,368
   CREDIT SUISSE/ 1592 - 2013-12-31 91,121 $4,528,000 -5,586
   PRINCIPAL FINANCIAL GROUP INC 1418 - 2013-12-31 89,162 $4,431,000 2,008
   NEW YORK STATE TEACHERS RETIREMENT SYSTEM - 2013-12-31 89,120 $4,428,000 728
   DENALI ADVISORS LLC 25 - 2013-12-31 87,200 $4,333,000 0
   MOORE CAPITAL MANAGEMENT, LP 154 *New 2013-12-31 85,000 $4,224,000 85,000
   LOS ANGELES CAPITAL MANAGEMENT & EQUITY RESEARCH I 362 - 2013-12-31 84,930 $4,220,000 -122,385
   CR INTRINSIC INVESTORS LLC 167 - 2013-12-31 80,000 $3,975,000 -40,000
   DIXON HUBARD FEINOUR & BROWN INC 25 - 2013-12-31 79,040 $3,927,000 -1,300
   PRUDENTIAL FINANCIAL INC 1130 - 2013-12-31 75,053 $3,730,000 11,000
   STATE BOARD OF ADMINISTRATION OF FLORIDA RETIREMEN 925 - 2013-12-31 72,402 $3,598,000 -1,326
   MANUFACTURERES LIFE INSURANCE CO 1176 - 2013-12-31 63,983 $3,180,000 -7,046
   MRM-HORIZON ADVISORS LLC 17 - 2013-12-31 63,450 $3,153,000 -39,050
   HSBC HOLDINGS PLC 774 - 2013-12-31 62,854 $3,124,000 11,442
   COMERICA BANK 848 - 2013-12-31 61,013 $3,032,000 -1,687
   Winton Capital Management Ltd 420 - 2013-12-31 59,772 $2,970,000 59,772
   ARROWSTREET CAPITAL LIMITED PARTNERSHIP 574 - 2013-12-31 57,280 $2,846,000 52,604
   TD ASSET MANAGEMENT INC 753 - 2013-12-31 55,257 $2,746,000 3,200
   GOTHAM ASSET MANAGEMENT, LLC 415 - 2013-12-31 53,597 $2,663,000 6,875
   HUTCHIN HILL CAPITAL, LP 85 - 2013-12-31 52,500 $2,609,000 52,500
   NOMURA HOLDINGS INC 475 - 2013-12-31 50,341 $2,508,000 35,591
   TWO SIGMA INVESTMENTS LLC 925 - 2013-12-31 47,879 $2,379,000 -133,644
   AQR CAPITAL MANAGEMENT LLC 1144 - 2013-12-31 47,874 $2,379,000 32,600
   SMITH, GRAHAM & CO., INVESTMENT ADVISORS, LP 110 - 2013-12-31 47,228 $2,347,000 -17,310
   FIRST HOUSTON CAPITAL, INC. 16 - 2013-12-31 47,100 $2,340,000 1,800
   CHEVY CHASE TRUST HOLDINGS, INC. 533 - 2013-12-31 46,982 $2,334,000 2,012
   CREDIT AGRICOLE S A 782 - 2013-12-31 45,634 $2,267,000 700
   ING INVESTMENT MANAGEMENT LLC 1054 - 2013-12-31 45,248 $2,249,000 -252

  100 Records found
  1    
  Page 1 of 1
Free Registration Required For Full Results